createdAt,value
2019-03-29T00:01:41.854Z,4.50
2019-03-29T00:04:10.697Z,4.40
2019-03-29T00:06:44.764Z,4.50
2019-03-29T00:09:14.126Z,4.60
2019-03-29T00:11:43.681Z,4.50
2019-03-29T00:14:12.260Z,4.50
2019-03-29T00:16:41.636Z,4.40
2019-03-29T00:19:10.015Z,4.30
2019-03-29T00:21:39.123Z,4.40
2019-03-29T00:24:08.302Z,4.40
2019-03-29T00:26:36.841Z,4.30
2019-03-29T00:29:05.177Z,4.30
2019-03-29T00:31:33.836Z,4.30
2019-03-29T00:34:02.292Z,4.30
2019-03-29T00:36:31.080Z,4.20
2019-03-29T00:38:59.554Z,4.40
2019-03-29T00:41:28.159Z,4.30
2019-03-29T00:43:56.592Z,4.20
2019-03-29T00:46:25.061Z,4.30
2019-03-29T00:48:53.522Z,4.30
2019-03-29T00:51:22.311Z,4.40
2019-03-29T00:53:50.719Z,4.40
2019-03-29T00:56:19.282Z,4.30
2019-03-29T00:58:48.869Z,4.30
2019-03-29T01:01:17.643Z,4.20
2019-03-29T01:03:48.233Z,4.10
2019-03-29T01:06:16.808Z,4.10
2019-03-29T01:08:45.356Z,4.00
2019-03-29T01:11:14.284Z,4.00
2019-03-29T01:13:43.503Z,4.00
2019-03-29T01:16:12.369Z,4.10
2019-03-29T01:18:43.166Z,4.10
2019-03-29T01:21:11.771Z,4.00
2019-03-29T01:23:41.728Z,3.90
2019-03-29T01:26:10.289Z,4.00
2019-03-29T01:28:41.939Z,4.00
2019-03-29T01:31:10.483Z,4.00
2019-03-29T01:33:39.320Z,4.00
2019-03-29T01:36:07.856Z,4.00
2019-03-29T01:38:36.319Z,4.10
2019-03-29T01:41:06.494Z,4.00
2019-03-29T01:43:35.285Z,4.00
2019-03-29T01:46:04.788Z,4.10
2019-03-29T01:48:33.452Z,4.00
2019-03-29T01:51:02.042Z,4.00
2019-03-29T01:53:30.486Z,4.00
2019-03-29T01:55:58.804Z,4.00
2019-03-29T01:58:27.344Z,4.00
2019-03-29T02:00:55.722Z,4.00
2019-03-29T02:03:24.400Z,4.00
2019-03-29T02:05:53.910Z,4.10
2019-03-29T02:08:35.113Z,4.20
2019-03-29T02:10:52.794Z,4.40
2019-03-29T02:13:21.408Z,4.40
2019-03-29T02:15:50.801Z,4.50
2019-03-29T02:18:19.271Z,4.50
2019-03-29T02:20:47.665Z,4.60
2019-03-29T02:23:16.760Z,4.80
2019-03-29T02:25:45.137Z,4.90
2019-03-29T02:28:16.780Z,5.10
2019-03-29T02:30:45.172Z,5.10
2019-03-29T02:33:13.860Z,5.10
2019-03-29T02:35:42.338Z,5.10
2019-03-29T02:38:10.669Z,5.20
2019-03-29T02:40:39.299Z,5.20
2019-03-29T02:43:07.673Z,5.20
2019-03-29T02:45:36.094Z,5.20
2019-03-29T02:48:04.874Z,5.20
2019-03-29T02:50:33.370Z,5.10
2019-03-29T02:53:02.011Z,5.10
2019-03-29T02:55:30.474Z,5.10
2019-03-29T02:57:58.921Z,5.00
2019-03-29T03:00:30.972Z,5.20
2019-03-29T03:02:59.545Z,5.20
2019-03-29T03:05:27.894Z,5.30
2019-03-29T03:07:56.592Z,5.20
2019-03-29T03:10:24.863Z,5.10
2019-03-29T03:12:53.918Z,5.20
2019-03-29T03:15:23.675Z,5.20
2019-03-29T03:17:52.151Z,5.20
2019-03-29T03:20:20.785Z,5.20
2019-03-29T03:22:49.849Z,5.00
2019-03-29T03:25:19.125Z,4.80
2019-03-29T03:27:48.007Z,4.50
2019-03-29T03:30:16.629Z,4.60
2019-03-29T03:32:45.002Z,4.50
2019-03-29T03:35:13.760Z,4.40
2019-03-29T03:37:42.665Z,4.30
2019-03-29T03:40:14.443Z,4.20
2019-03-29T03:42:43.115Z,4.20
2019-03-29T03:45:12.730Z,4.30
2019-03-29T03:47:41.445Z,4.50
2019-03-29T03:50:30.106Z,4.50
2019-03-29T03:52:58.289Z,4.50
2019-03-29T03:55:27.913Z,4.50
2019-03-29T03:57:57.996Z,4.30
2019-03-29T04:00:35.352Z,4.30
2019-03-29T04:03:04.021Z,4.40
2019-03-29T04:05:32.532Z,4.40
2019-03-29T04:08:01.215Z,4.30
2019-03-29T04:10:29.885Z,4.30
2019-03-29T04:13:01.983Z,4.20
2019-03-29T04:15:33.678Z,4.10
2019-03-29T04:18:02.498Z,4.00
2019-03-29T04:20:33.988Z,4.00
2019-03-29T04:23:02.580Z,3.80
2019-03-29T04:25:31.613Z,3.80
2019-03-29T04:27:59.992Z,3.80
2019-03-29T04:30:29.061Z,3.60
2019-03-29T04:32:58.275Z,3.80
2019-03-29T04:35:27.111Z,3.80
2019-03-29T04:37:56.187Z,3.80
2019-03-29T04:40:25.191Z,4.00
2019-03-29T04:42:54.458Z,4.10
2019-03-29T04:45:22.948Z,4.10
2019-03-29T04:47:51.617Z,4.20
2019-03-29T04:50:20.841Z,4.10
2019-03-29T04:52:49.908Z,4.20
2019-03-29T04:55:18.964Z,4.20
2019-03-29T04:57:47.651Z,4.10
2019-03-29T05:00:17.183Z,4.10
2019-03-29T05:02:45.981Z,4.20
2019-03-29T05:05:14.592Z,4.20
2019-03-29T05:07:43.964Z,4.30
2019-03-29T05:10:21.031Z,4.40
2019-03-29T05:12:50.561Z,4.60
2019-03-29T05:15:19.838Z,4.70
2019-03-29T05:17:48.342Z,4.80
2019-03-29T05:20:38.772Z,4.90
2019-03-29T05:23:15.590Z,5.00
2019-03-29T05:26:02.990Z,5.00
2019-03-29T05:28:35.113Z,5.20
2019-03-29T05:31:20.389Z,5.30
2019-03-29T05:34:15.445Z,5.40
2019-03-29T05:36:44.543Z,5.30
2019-03-29T05:39:16.641Z,5.60
2019-03-29T05:41:48.766Z,5.70
2019-03-29T05:44:19.488Z,5.80
2019-03-29T05:46:48.044Z,6.00
2019-03-29T05:49:17.669Z,6.00
2019-03-29T05:51:46.689Z,6.10
2019-03-29T05:54:15.503Z,6.10
2019-03-29T05:56:45.971Z,6.20
2019-03-29T05:59:14.303Z,6.30
2019-03-29T06:01:42.695Z,6.40
2019-03-29T06:04:14.290Z,6.50
2019-03-29T06:06:42.750Z,6.50
2019-03-29T06:09:11.057Z,6.70
2019-03-29T06:11:40.113Z,6.80
2019-03-29T06:14:08.410Z,6.90
2019-03-29T06:25:22.191Z,7.10
2019-03-29T06:27:51.596Z,7.10
2019-03-29T06:30:45.828Z,7.30
2019-03-29T06:33:06.022Z,7.20
2019-03-29T06:35:38.234Z,7.40
2019-03-29T06:38:11.694Z,7.10
2019-03-29T06:40:40.669Z,7.40
2019-03-29T06:43:49.398Z,7.50
2019-03-29T06:50:33.730Z,7.50
2019-03-29T06:53:02.932Z,7.60
2019-03-29T06:55:31.396Z,7.90
2019-03-29T06:58:00.199Z,7.90
2019-03-29T07:00:34.669Z,8.00
2019-03-29T07:03:06.219Z,8.10
2019-03-29T07:05:37.256Z,8.10
2019-03-29T07:08:11.190Z,8.10
2019-03-29T07:10:41.754Z,8.20
2019-03-29T07:13:10.480Z,8.30
2019-03-29T07:15:39.149Z,8.40
2019-03-29T07:18:07.626Z,8.40
2019-03-29T07:20:36.298Z,8.50
2019-03-29T07:23:05.317Z,8.70
2019-03-29T07:25:36.753Z,8.60
2019-03-29T07:28:24.670Z,8.80
2019-03-29T07:30:53.342Z,9.10
2019-03-29T07:33:24.819Z,9.10
2019-03-29T07:35:53.633Z,9.20
2019-03-29T07:57:56.232Z,8.80
2019-03-29T08:00:24.460Z,8.90
2019-03-29T08:02:52.733Z,8.90
2019-03-29T08:05:20.917Z,8.80
2019-03-29T08:07:51.088Z,8.90
2019-03-29T08:10:27.377Z,9.00
2019-03-29T08:12:49.757Z,9.00
2019-03-29T08:15:19.510Z,9.00
2019-03-29T08:17:47.797Z,9.10
2019-03-29T08:20:38.147Z,9.20
2019-03-29T08:22:46.079Z,9.30
2019-03-29T08:25:14.305Z,9.40
2019-03-29T08:27:42.581Z,9.40
2019-03-29T08:30:10.731Z,9.40
2019-03-29T08:32:38.971Z,9.50
2019-03-29T08:35:07.283Z,9.60
2019-03-29T08:37:35.466Z,9.60
2019-03-29T08:40:04.401Z,9.70
2019-03-29T08:42:32.553Z,9.80
2019-03-29T08:45:00.767Z,9.70
2019-03-29T08:47:29.132Z,9.70
2019-03-29T08:49:57.333Z,9.80
2019-03-29T08:52:25.553Z,9.80
2019-03-29T08:54:53.764Z,10.00
2019-03-29T08:57:21.942Z,10.10
2019-03-29T08:59:51.592Z,10.20
2019-03-29T09:02:19.874Z,10.20
2019-03-29T09:04:48.832Z,10.30
2019-03-29T09:07:16.990Z,10.50
2019-03-29T09:09:46.528Z,10.40
2019-03-29T09:12:15.125Z,10.50
2019-03-29T09:14:43.465Z,10.70
2019-03-29T09:17:11.603Z,10.80
2019-03-29T09:19:40.037Z,10.80
2019-03-29T09:22:08.208Z,10.90
2019-03-29T09:24:36.352Z,10.90
2019-03-29T09:27:04.682Z,10.90
2019-03-29T09:29:32.809Z,10.90
2019-03-29T09:32:01.134Z,10.90
2019-03-29T09:34:29.369Z,11.10
2019-03-29T09:36:59.933Z,11.00
2019-03-29T09:39:27.632Z,11.10
2019-03-29T09:41:55.795Z,11.10
2019-03-29T09:44:24.080Z,11.10
2019-03-29T09:46:52.318Z,11.20
2019-03-29T09:49:20.721Z,11.30
2019-03-29T09:51:49.216Z,11.30
2019-03-29T09:54:20.284Z,11.60
2019-03-29T09:56:48.476Z,11.90
2019-03-29T09:59:16.867Z,11.80
2019-03-29T10:01:45.331Z,11.60
2019-03-29T10:04:13.439Z,11.50
2019-03-29T10:06:41.670Z,11.70
2019-03-29T10:09:11.836Z,11.60
2019-03-29T10:11:39.908Z,11.60
2019-03-29T10:14:07.990Z,11.70
2019-03-29T10:16:36.285Z,11.80
2019-03-29T10:19:04.442Z,12.00
2019-03-29T10:21:34.265Z,11.90
2019-03-29T10:24:03.977Z,12.10
2019-03-29T10:26:32.219Z,12.30
2019-03-29T10:29:00.414Z,12.40
2019-03-29T10:31:32.828Z,12.60
2019-03-29T10:34:00.558Z,12.90
2019-03-29T10:36:28.830Z,13.10
2019-03-29T10:38:56.947Z,13.20
2019-03-29T10:41:25.122Z,13.30
2019-03-29T10:43:53.523Z,13.40
2019-03-29T10:46:21.720Z,13.50
2019-03-29T10:48:49.879Z,13.30
2019-03-29T10:51:20.591Z,13.20
2019-03-29T10:53:48.714Z,13.20
2019-03-29T10:56:17.031Z,13.10
2019-03-29T10:58:45.170Z,12.90
2019-03-29T11:01:13.405Z,12.70
2019-03-29T11:03:41.729Z,12.60
2019-03-29T11:06:10.638Z,12.70
2019-03-29T11:08:43.320Z,12.80
2019-03-29T11:11:09.804Z,13.00
2019-03-29T11:13:40.746Z,13.30
2019-03-29T11:16:08.118Z,13.60
2019-03-29T11:18:36.254Z,13.60
2019-03-29T11:21:04.766Z,13.40
2019-03-29T11:23:32.908Z,13.20
2019-03-29T11:26:01.026Z,13.10
2019-03-29T11:28:29.147Z,13.00
2019-03-29T11:31:00.092Z,12.80
2019-03-29T11:33:28.245Z,12.80
2019-03-29T11:35:56.339Z,12.80
2019-03-29T11:38:24.420Z,12.80
2019-03-29T11:40:52.609Z,12.90
2019-03-29T11:43:27.112Z,12.90
2019-03-29T11:45:53.172Z,12.80
2019-03-29T11:48:21.201Z,12.90
2019-03-29T11:50:49.377Z,12.90
2019-03-29T11:53:17.561Z,12.90
2019-03-29T11:55:45.812Z,13.00
2019-03-29T11:58:14.103Z,12.90
2019-03-29T12:00:42.293Z,12.80
2019-03-29T12:03:10.689Z,12.80
2019-03-29T12:05:38.743Z,12.60
2019-03-29T12:08:07.125Z,12.50
2019-03-29T12:10:37.231Z,12.50
2019-03-29T12:13:06.870Z,12.60
2019-03-29T12:15:35.267Z,12.70
2019-03-29T12:18:03.531Z,12.80
2019-03-29T12:20:31.672Z,12.80
2019-03-29T12:23:00.197Z,12.80
2019-03-29T12:25:28.732Z,12.90
2019-03-29T12:27:57.032Z,12.90
2019-03-29T12:30:31.665Z,13.00
2019-03-29T12:32:55.207Z,13.00
2019-03-29T12:35:23.457Z,13.00
2019-03-29T12:37:51.754Z,12.90
2019-03-29T12:40:20.063Z,13.00
2019-03-29T12:42:48.452Z,13.10
2019-03-29T12:45:17.136Z,13.20
2019-03-29T12:47:45.575Z,13.30
2019-03-29T12:50:14.120Z,13.30
2019-03-29T12:52:43.608Z,13.30
2019-03-29T12:55:12.667Z,13.10
2019-03-29T12:57:40.951Z,13.00
2019-03-29T13:00:10.726Z,12.90
2019-03-29T13:02:39.053Z,12.80
2019-03-29T13:05:08.153Z,12.80
2019-03-29T13:07:36.486Z,12.80
2019-03-29T13:10:05.606Z,12.90
2019-03-29T13:12:34.028Z,12.90
2019-03-29T13:15:02.431Z,12.90
2019-03-29T13:17:30.889Z,13.00
2019-03-29T13:19:59.542Z,13.00
2019-03-29T13:22:28.078Z,13.10
2019-03-29T13:24:59.348Z,13.20
2019-03-29T13:27:27.841Z,13.40
2019-03-29T13:29:56.140Z,13.20
2019-03-29T13:32:24.576Z,13.20
2019-03-29T13:34:52.953Z,13.20
2019-03-29T13:37:21.269Z,13.30
2019-03-29T13:39:49.534Z,13.30
2019-03-29T13:42:18.218Z,13.40
2019-03-29T13:44:46.547Z,13.30
2019-03-29T13:47:17.994Z,13.10
2019-03-29T13:49:45.757Z,13.30
2019-03-29T13:52:14.114Z,13.30
2019-03-29T13:54:42.775Z,13.30
2019-03-29T13:57:11.771Z,13.40
2019-03-29T13:59:41.707Z,13.30
2019-03-29T14:02:11.632Z,13.30
2019-03-29T14:04:40.534Z,13.30
2019-03-29T14:07:10.374Z,13.30
2019-03-29T14:09:38.934Z,13.30
2019-03-29T14:12:08.033Z,13.30
2019-03-29T14:14:38.386Z,13.30
2019-03-29T14:17:07.748Z,13.40
2019-03-29T14:19:42.028Z,13.20
2019-03-29T14:22:10.962Z,13.10
2019-03-29T14:24:39.540Z,13.00
2019-03-29T14:27:09.640Z,13.00
2019-03-29T14:29:38.346Z,13.00
2019-03-29T14:32:07.241Z,12.90
2019-03-29T14:34:36.620Z,12.80
2019-03-29T14:37:05.344Z,12.70
2019-03-29T14:39:33.785Z,12.70
2019-03-29T14:42:04.723Z,12.80
2019-03-29T14:44:33.414Z,12.80
2019-03-29T14:47:03.380Z,12.90
2019-03-29T14:49:32.655Z,12.70
2019-03-29T14:52:01.551Z,12.60
2019-03-29T14:54:33.701Z,12.60
2019-03-29T14:57:05.425Z,12.60
2019-03-29T14:59:33.173Z,12.50
2019-03-29T15:02:08.187Z,12.50
2019-03-29T15:04:36.672Z,12.50
2019-03-29T15:07:07.512Z,12.30
2019-03-29T15:09:38.561Z,12.40
2019-03-29T15:12:07.352Z,12.20
2019-03-29T15:14:37.952Z,12.20
2019-03-29T15:17:07.850Z,12.00
2019-03-29T15:19:36.549Z,12.20
2019-03-29T15:22:07.662Z,12.20
2019-03-29T15:24:36.362Z,12.10
2019-03-29T15:27:05.100Z,12.10
2019-03-29T15:29:40.760Z,12.10
2019-03-29T15:32:09.380Z,12.10
2019-03-29T15:34:38.239Z,12.10
2019-03-29T15:37:09.881Z,12.10
2019-03-29T15:39:37.571Z,12.00
2019-03-29T15:42:06.072Z,12.10
2019-03-29T15:44:37.328Z,12.10
2019-03-29T15:47:06.232Z,12.10
2019-03-29T15:49:35.337Z,12.10
2019-03-29T15:52:08.460Z,12.10
2019-03-29T15:54:36.975Z,12.20
2019-03-29T15:57:05.578Z,12.20
2019-03-29T15:59:34.488Z,12.10
2019-03-29T16:02:03.101Z,12.10
2019-03-29T16:04:31.794Z,12.10
2019-03-29T16:07:00.468Z,12.10
2019-03-29T16:09:29.032Z,12.10
2019-03-29T16:11:58.894Z,12.10
2019-03-29T16:14:29.422Z,12.10
2019-03-29T16:16:57.911Z,12.00
2019-03-29T16:19:26.545Z,12.00
2019-03-29T16:21:55.211Z,12.00
2019-03-29T16:24:24.876Z,11.90
2019-03-29T16:26:57.196Z,11.90
2019-03-29T16:29:25.422Z,11.90
2019-03-29T16:31:53.826Z,11.90
2019-03-29T16:34:22.581Z,11.90
2019-03-29T16:36:50.864Z,11.80
2019-03-29T16:39:19.678Z,11.80
2019-03-29T16:41:47.804Z,11.80
2019-03-29T16:44:16.762Z,11.70
2019-03-29T16:46:45.126Z,11.70
2019-03-29T16:49:13.372Z,11.70
2019-03-29T16:51:41.765Z,11.60
2019-03-29T16:54:09.953Z,11.60
2019-03-29T16:56:41.834Z,11.50
2019-03-29T16:59:10.070Z,11.50
2019-03-29T17:01:38.696Z,11.50
2019-03-29T17:04:06.981Z,11.50
2019-03-29T17:06:35.338Z,11.50
2019-03-29T17:09:06.709Z,11.40
2019-03-29T17:11:35.149Z,11.30
2019-03-29T17:14:03.453Z,11.30
2019-03-29T17:16:31.804Z,11.30
2019-03-29T17:19:00.185Z,11.20
2019-03-29T17:21:46.588Z,11.00
2019-03-29T17:24:14.929Z,11.10
2019-03-29T17:26:43.259Z,11.00
2019-03-29T17:29:11.569Z,11.00
2019-03-29T17:31:42.219Z,11.00
2019-03-29T17:34:10.625Z,10.90
2019-03-29T17:36:39.046Z,10.90
2019-03-29T17:39:07.370Z,10.90
2019-03-29T17:41:35.628Z,10.90
2019-03-29T17:44:04.014Z,10.90
2019-03-29T17:46:32.739Z,10.90
2019-03-29T17:49:01.275Z,10.90
2019-03-29T17:51:29.674Z,10.90
2019-03-29T17:53:57.994Z,10.90
2019-03-29T17:56:26.378Z,11.00
2019-03-29T17:58:54.730Z,10.90
2019-03-29T18:01:24.581Z,10.90
2019-03-29T18:03:52.927Z,10.90
2019-03-29T18:06:21.165Z,10.90
2019-03-29T18:08:49.472Z,10.80
2019-03-29T18:11:17.653Z,10.80
2019-03-29T18:13:46.039Z,10.80
2019-03-29T18:16:29.897Z,10.80
2019-03-29T18:18:49.475Z,10.70
2019-03-29T18:21:17.854Z,10.70
2019-03-29T18:23:46.199Z,10.70
2019-03-29T18:26:16.683Z,10.70
2019-03-29T18:28:45.006Z,10.70
2019-03-29T18:31:13.317Z,10.70
2019-03-29T18:33:41.696Z,10.60
2019-03-29T18:36:09.852Z,10.60
2019-03-29T18:38:39.446Z,10.50
2019-03-29T18:41:07.737Z,10.50
2019-03-29T18:43:36.011Z,10.50
2019-03-29T18:46:04.516Z,10.50
2019-03-29T18:48:32.787Z,10.50
2019-03-29T18:51:01.062Z,10.60
2019-03-29T18:53:29.396Z,10.60
2019-03-29T18:55:57.613Z,10.50
2019-03-29T18:58:25.999Z,10.50
2019-03-29T19:00:54.327Z,10.50
2019-03-29T19:03:22.557Z,10.50
2019-03-29T19:05:51.103Z,10.40
2019-03-29T19:08:19.590Z,10.40
2019-03-29T19:10:47.818Z,10.40
2019-03-29T19:13:15.951Z,10.30
2019-03-29T19:15:44.327Z,10.30
2019-03-29T19:18:14.452Z,10.30
2019-03-29T19:20:42.844Z,10.20
2019-03-29T19:23:11.236Z,10.30
2019-03-29T19:25:39.453Z,10.20
2019-03-29T19:28:08.121Z,10.30
2019-03-29T19:30:36.432Z,10.30
2019-03-29T19:33:05.103Z,10.40
2019-03-29T19:35:33.523Z,10.20
2019-03-29T19:38:04.135Z,10.10
2019-03-29T19:40:32.473Z,10.10
2019-03-29T19:43:00.689Z,10.00
2019-03-29T19:45:28.806Z,10.00
2019-03-29T19:47:57.144Z,9.90
2019-03-29T19:50:27.613Z,9.80
2019-03-29T19:52:55.858Z,9.80
2019-03-29T19:55:24.280Z,9.70
2019-03-29T19:57:52.496Z,9.50
2019-03-29T20:00:30.332Z,9.60
2019-03-29T20:02:58.537Z,9.50
2019-03-29T20:05:27.819Z,9.50
2019-03-29T20:07:56.783Z,9.40
2019-03-29T20:10:25.257Z,9.30
2019-03-29T20:12:53.699Z,9.30
2019-03-29T20:15:22.090Z,9.20
2019-03-29T20:17:54.582Z,9.20
2019-03-29T20:20:23.574Z,9.10
2019-03-29T20:22:53.358Z,9.20
2019-03-29T20:25:21.740Z,9.20
2019-03-29T20:27:51.404Z,9.20
2019-03-29T20:30:20.022Z,9.10
2019-03-29T20:32:48.353Z,9.10
2019-03-29T20:35:16.827Z,9.00
2019-03-29T20:37:45.146Z,9.00
2019-03-29T20:40:13.909Z,9.00
2019-03-29T20:42:42.301Z,8.90
2019-03-29T20:45:11.183Z,9.00
2019-03-29T20:47:42.466Z,9.00
2019-03-29T20:50:09.965Z,9.00
2019-03-29T20:52:38.292Z,9.00
2019-03-29T20:55:06.997Z,8.90
2019-03-29T20:57:35.402Z,8.80
2019-03-29T21:00:04.483Z,8.80
2019-03-29T21:05:20.538Z,8.70
2019-03-29T21:07:49.434Z,8.60
2019-03-29T21:10:18.069Z,8.60
2019-03-29T21:12:46.516Z,8.60
2019-03-29T21:15:14.862Z,8.60
2019-03-29T21:17:55.806Z,8.60
2019-03-29T21:20:13.050Z,8.60
2019-03-29T21:22:41.567Z,8.70
2019-03-29T21:25:09.846Z,8.80
2019-03-29T21:27:38.228Z,8.80
2019-03-29T21:30:08.450Z,8.80
2019-03-29T21:32:36.732Z,8.70
2019-03-29T21:35:06.769Z,8.60
2019-03-29T21:37:34.947Z,8.50
2019-03-29T21:40:04.402Z,8.50
2019-03-29T21:42:32.780Z,8.40
2019-03-29T21:45:01.011Z,8.40
2019-03-29T21:47:29.260Z,8.40
2019-03-29T21:49:57.504Z,8.30
2019-03-29T21:52:25.785Z,8.30
2019-03-29T21:54:53.907Z,8.40
2019-03-29T21:57:22.055Z,8.40
2019-03-29T21:59:50.305Z,8.40
2019-03-29T22:02:21.396Z,8.30
2019-03-29T22:04:50.788Z,8.40
2019-03-29T22:07:19.052Z,8.40
2019-03-29T22:09:52.001Z,8.40
2019-03-29T22:12:20.282Z,8.50
2019-03-29T22:14:48.598Z,8.50
2019-03-29T22:17:16.942Z,8.40
2019-03-29T22:19:45.357Z,8.30
2019-03-29T22:22:13.543Z,8.20
2019-03-29T22:24:41.704Z,8.30
2019-03-29T22:27:10.061Z,8.30
2019-03-29T22:29:38.322Z,8.40
2019-03-29T22:32:06.554Z,8.50
2019-03-29T22:34:34.845Z,8.50
2019-03-29T22:37:03.042Z,8.50
2019-03-29T22:39:31.206Z,8.50
2019-03-29T22:42:01.461Z,8.50
2019-03-29T22:44:29.707Z,8.50
2019-03-29T22:46:57.846Z,8.50
2019-03-29T22:49:26.178Z,8.50
2019-03-29T22:51:54.497Z,8.50
2019-03-29T22:54:22.723Z,8.50
2019-03-29T22:56:50.970Z,8.40
2019-03-29T22:59:19.368Z,8.50
2019-03-29T23:01:47.864Z,8.40
2019-03-29T23:04:16.160Z,8.50
2019-03-29T23:06:44.315Z,8.30
2019-03-29T23:09:12.609Z,8.30
2019-03-29T23:11:44.629Z,8.30
2019-03-29T23:14:12.897Z,8.10
2019-03-29T23:16:41.063Z,8.00
2019-03-29T23:19:11.700Z,7.90
2019-03-29T23:21:39.964Z,7.80
2019-03-29T23:24:08.238Z,7.80
2019-03-29T23:26:36.436Z,7.90
2019-03-29T23:29:04.792Z,7.90
2019-03-29T23:31:33.144Z,7.90
2019-03-29T23:34:01.626Z,7.90
2019-03-29T23:36:30.055Z,7.80
2019-03-29T23:38:58.310Z,7.80
2019-03-29T23:41:26.691Z,7.70
2019-03-29T23:43:54.884Z,7.70
2019-03-29T23:46:23.122Z,7.70
2019-03-29T23:48:51.329Z,7.80
2019-03-29T23:51:19.529Z,7.80
2019-03-29T23:53:47.885Z,7.90
2019-03-29T23:56:16.152Z,8.00
2019-03-29T23:58:44.408Z,8.20
